Time;durP1;ratioP1;P1;durP2;ratioP2;P2;SDS_P1;SDS_P2;PMS_P1;PMS_P2;Temp;Humidity;BMP_temperature;BMP_pressure;BME280_temperature;BME280_humidity;BME280_pressure;Samples;Min_cycle;Max_cycle;Signal;HPM_P1;HPM_P2
2022/06/21 00:01:17;;;;;;;10.10;2.00;;;;;;;;;;5051892;28;20032;-79
2022/06/21 00:03:43;;;;;;;14.85;2.45;;;;;;;;;;5029132;28;20143;-79
2022/06/21 00:06:13;;;;;;;17.05;3.00;;;;;;;;;;5033095;28;20052;-77
2022/06/21 00:08:40;;;;;;;16.00;2.60;;;;;;;;;;5032146;28;20044;-77
2022/06/21 00:11:19;;;;;;;11.48;2.38;;;;;;;;;;5055039;28;20139;-79
2022/06/21 00:13:46;;;;;;;12.20;2.25;;;;;;;;;;5035202;28;20103;-80
2022/06/21 00:16:13;;;;;;;8.98;2.30;;;;;;;;;;5052181;28;20041;-78
2022/06/21 00:18:40;;;;;;;12.50;2.70;;;;;;;;;;5047340;28;20053;-79
2022/06/21 00:21:09;;;;;;;10.90;2.50;;;;;;;;;;5048559;28;20492;-77
2022/06/21 00:23:36;;;;;;;10.60;2.60;;;;;;;;;;5054202;28;20060;-79
2022/06/21 00:26:02;;;;;;;10.63;2.40;;;;;;;;;;5044354;28;20094;-77
2022/06/21 00:28:28;;;;;;;13.32;3.00;;;;;;;;;;5051397;28;20080;-79
2022/06/21 00:30:57;;;;;;;9.35;2.25;;;;;;;;;;5038279;28;20168;-79
2022/06/21 00:33:24;;;;;;;24.50;2.90;;;;;;;;;;5070399;28;20059;-79
2022/06/21 00:35:52;;;;;;;13.50;3.10;;;;;;;;;;5065328;28;20036;-79
2022/06/21 00:38:34;;;;;;;14.85;2.65;;;;;;;;;;5065330;28;20024;-78
2022/06/21 00:41:03;;;;;;;11.00;2.65;;;;;;;;;;5067859;28;20044;-78
2022/06/21 00:43:31;;;;;;;11.52;2.58;;;;;;;;;;5054043;28;20105;-78
2022/06/21 00:45:59;;;;;;;7.30;2.47;;;;;;;;;;5072198;28;20156;-78
2022/06/21 00:48:40;;;;;;;14.80;3.05;;;;;;;;;;5078069;28;20044;-80
2022/06/21 00:51:12;;;;;;;11.50;2.42;;;;;;;;;;5049029;28;20048;-77
2022/06/21 00:53:40;;;;;;;14.30;2.58;;;;;;;;;;5065219;28;20508;-78
2022/06/21 00:56:11;;;;;;;9.20;2.22;;;;;;;;;;5053134;28;20133;-78
2022/06/21 00:58:37;;;;;;;13.07;2.95;;;;;;;;;;5051802;28;20045;-78
2022/06/21 01:01:20;;;;;;;13.20;2.75;;;;;;;;;;5068240;28;20516;-78
2022/06/21 01:03:55;;;;;;;12.38;2.70;;;;;;;;;;5052041;28;20068;-78
2022/06/21 01:06:27;;;;;;;15.07;3.35;;;;;;;;;;5060973;28;20039;-79
2022/06/21 01:08:58;;;;;;;12.40;2.95;;;;;;;;;;5070602;28;20059;-79
2022/06/21 01:11:28;;;;;;;10.82;2.33;;;;;;;;;;5065981;28;20048;-78
2022/06/21 01:13:55;;;;;;;9.13;2.90;;;;;;;;;;5066772;28;20033;-78
2022/06/21 01:16:24;;;;;;;9.45;2.70;;;;;;;;;;5071940;28;20056;-79
2022/06/21 01:18:50;;;;;;;11.50;3.10;;;;;;;;;;5061525;28;20035;-78
2022/06/21 01:21:17;;;;;;;9.52;2.47;;;;;;;;;;5051408;28;20090;-79
2022/06/21 01:23:57;;;;;;;8.48;2.78;;;;;;;;;;5052441;28;20518;-77
2022/06/21 01:26:44;;;;;;;10.00;2.88;;;;;;;;;;5047891;28;20067;-77
2022/06/21 01:29:12;;;;;;;10.98;3.78;;;;;;;;;;5070193;28;20130;-79
2022/06/21 01:31:38;;;;;;;13.75;2.60;;;;;;;;;;5068773;28;20100;-79
2022/06/21 01:34:06;;;;;;;9.18;2.85;;;;;;;;;;5064455;28;20404;-78
2022/06/21 01:36:34;;;;;;;13.35;2.63;;;;;;;;;;5055301;28;20058;-78
2022/06/21 01:39:02;;;;;;;8.73;2.65;;;;;;;;;;5050273;28;20136;-79
2022/06/21 01:41:31;;;;;;;14.43;3.13;;;;;;;;;;5052756;28;20094;-78
2022/06/21 01:43:59;;;;;;;8.70;2.67;;;;;;;;;;5053777;28;20040;-80
2022/06/21 01:46:28;;;;;;;9.80;2.85;;;;;;;;;;5052950;28;20036;-80
2022/06/21 01:48:55;;;;;;;7.85;2.83;;;;;;;;;;5065816;28;20459;-79
2022/06/21 01:51:28;;;;;;;8.02;2.88;;;;;;;;;;5060056;28;20446;-79
2022/06/21 01:53:55;;;;;;;10.07;2.67;;;;;;;;;;5051958;28;20052;-78
2022/06/21 01:56:25;;;;;;;9.98;3.30;;;;;;;;;;5067913;28;20032;-79
2022/06/21 01:58:54;;;;;;;10.65;2.72;;;;;;;;;;5075358;28;20041;-79
2022/06/21 02:01:23;;;;;;;10.70;2.97;;;;;;;;;;5062061;28;20101;-77
2022/06/21 02:03:51;;;;;;;10.38;2.95;;;;;;;;;;5074409;28;20040;-79
2022/06/21 02:06:18;;;;;;;12.45;2.95;;;;;;;;;;5054583;28;20051;-77
2022/06/21 02:08:55;;;;;;;7.43;2.70;;;;;;;;;;5073842;28;20040;-79
2022/06/21 02:11:27;;;;;;;9.40;2.80;;;;;;;;;;5077302;28;20081;-78
2022/06/21 02:16:45;;;;;;;11.70;3.10;;;;;;;;;;5067669;28;20048;-79
2022/06/21 02:19:16;;;;;;;13.60;3.72;;;;;;;;;;5050990;28;20035;-79
2022/06/21 02:21:42;;;;;;;10.98;2.75;;;;;;;;;;5079719;28;20473;-78
2022/06/21 02:24:13;;;;;;;9.00;3.53;;;;;;;;;;5070860;28;20055;-79
2022/06/21 02:26:39;;;;;;;12.27;3.38;;;;;;;;;;5062395;28;20099;-79
2022/06/21 02:29:06;;;;;;;15.00;3.28;;;;;;;;;;5039324;28;20101;-78
2022/06/21 02:31:32;;;;;;;6.60;3.13;;;;;;;;;;5047031;28;20869;-78
2022/06/21 02:34:03;;;;;;;8.82;3.25;;;;;;;;;;5052519;28;20052;-78
2022/06/21 02:36:32;;;;;;;11.40;2.92;;;;;;;;;;5065125;28;20044;-78
2022/06/21 02:38:59;;;;;;;10.02;2.88;;;;;;;;;;5057189;28;20039;-77
2022/06/21 02:41:28;;;;;;;12.10;3.70;;;;;;;;;;5064315;28;20040;-78
2022/06/21 02:44:00;;;;;;;9.18;3.00;;;;;;;;;;5059797;28;20080;-78
2022/06/21 02:46:31;;;;;;;8.85;3.45;;;;;;;;;;5064682;28;20045;-79
2022/06/21 02:49:00;;;;;;;10.93;3.38;;;;;;;;;;5065500;28;20385;-79
2022/06/21 02:51:32;;;;;;;11.18;3.15;;;;;;;;;;5065353;28;20408;-79
2022/06/21 02:54:04;;;;;;;11.23;3.08;;;;;;;;;;5056525;28;20125;-79
2022/06/21 02:56:36;;;;;;;11.18;3.08;;;;;;;;;;5063931;28;20384;-78
2022/06/21 02:59:02;;;;;;;11.85;3.15;;;;;;;;;;5063539;28;20572;-78
2022/06/21 03:01:35;;;;;;;15.10;3.80;;;;;;;;;;5064458;28;20072;-78
2022/06/21 03:04:01;;;;;;;14.68;3.63;;;;;;;;;;5056789;28;20044;-79
2022/06/21 03:06:29;;;;;;;12.60;3.75;;;;;;;;;;5063738;28;20037;-78
2022/06/21 03:09:00;;;;;;;7.57;3.10;;;;;;;;;;5065828;28;20123;-78
2022/06/21 03:11:28;;;;;;;9.30;3.50;;;;;;;;;;5058743;28;20041;-79
2022/06/21 03:13:55;;;;;;;11.13;3.80;;;;;;;;;;5064089;28;20043;-79
2022/06/21 03:16:22;;;;;;;8.65;3.47;;;;;;;;;;5051654;28;20202;-79
2022/06/21 03:18:52;;;;;;;11.77;3.60;;;;;;;;;;5052540;28;20052;-80
2022/06/21 03:21:22;;;;;;;9.30;3.70;;;;;;;;;;5057753;28;20040;-79
2022/06/21 03:23:48;;;;;;;15.15;4.57;;;;;;;;;;5063354;28;20411;-78
2022/06/21 03:26:15;;;;;;;14.18;4.55;;;;;;;;;;5033949;28;20117;-78
2022/06/21 03:28:43;;;;;;;8.13;3.97;;;;;;;;;;5036185;28;20071;-78
2022/06/21 03:31:12;;;;;;;10.43;4.50;;;;;;;;;;5063953;28;20572;-78
2022/06/21 03:33:40;;;;;;;6.40;4.18;;;;;;;;;;5077961;28;20044;-79
2022/06/21 03:36:07;;;;;;;11.18;4.50;;;;;;;;;;5043900;28;20100;-78
2022/06/21 03:38:34;;;;;;;12.68;4.38;;;;;;;;;;5071628;28;20028;-77
2022/06/21 03:43:54;;;;;;;8.68;4.35;;;;;;;;;;5070854;28;20055;-76
2022/06/21 03:46:23;;;;;;;17.77;5.00;;;;;;;;;;5053365;28;20043;-78
2022/06/21 03:48:54;;;;;;;10.60;4.28;;;;;;;;;;5066629;28;20772;-79
2022/06/21 03:51:23;;;;;;;9.82;4.20;;;;;;;;;;5057292;28;20352;-79
2022/06/21 03:53:52;;;;;;;7.57;4.07;;;;;;;;;;5074123;28;20051;-79
2022/06/21 03:56:18;;;;;;;8.30;4.00;;;;;;;;;;5050567;28;20091;-79
2022/06/21 03:59:02;;;;;;;8.07;4.53;;;;;;;;;;5056711;28;20079;-78
2022/06/21 04:01:28;;;;;;;;;;;;;;;;;;5065114;28;20037;-78
2022/06/21 04:03:54;;;;;;;12.65;4.50;;;;;;;;;;5071721;28;20307;-78
2022/06/21 04:06:25;;;;;;;12.10;4.55;;;;;;;;;;5050368;28;20111;-78
2022/06/21 04:08:51;;;;;;;10.82;4.35;;;;;;;;;;5049921;28;20045;-78
2022/06/21 04:11:23;;;;;;;17.25;5.22;;;;;;;;;;5068798;28;20035;-78
2022/06/21 04:13:58;;;;;;;12.35;5.32;;;;;;;;;;5056349;28;20040;-76
2022/06/21 04:16:35;;;;;;;14.57;5.30;;;;;;;;;;5051143;28;20052;-76
2022/06/21 04:19:05;;;;;;;9.27;4.90;;;;;;;;;;5075012;28;20070;-78
2022/06/21 04:22:02;;;;;;;11.07;5.07;;;11.80;99.90;;;;;;5071457;28;20143;-77
2022/06/21 04:25:09;;;;;;;10.45;5.53;;;;;;;;;;5053580;28;20052;-79
2022/06/21 04:27:53;;;;;;;9.52;4.75;;;;;;;;;;4925382;28;20099;-77
2022/06/21 04:30:31;;;;;;;7.53;4.90;;;;;;;;;;4928443;28;20499;-79
2022/06/21 04:33:10;;;;;;;9.35;4.40;;;;;;;;;;4980360;28;20151;-78
2022/06/21 04:35:39;;;;;;;11.20;5.40;;;;;;;;;;5045065;28;20484;-75
2022/06/21 04:38:08;;;;;;;12.60;5.13;;;;;;;;;;5039190;28;20061;-78
2022/06/21 04:40:34;;;;;;;8.90;5.13;;;;;;;;;;5040993;28;20067;-78
2022/06/21 04:43:13;;;;;;;8.15;5.57;;;;;;;;;;5055233;28;20041;-77
2022/06/21 04:45:44;;;;;;;12.70;5.70;;;;;;;;;;5020166;28;20491;-78
2022/06/21 04:48:22;;;;;;;14.98;5.53;;;;;;;;;;5045047;28;20045;-78
2022/06/21 04:50:50;;;;;;;11.55;5.53;;;;;;;;;;5033221;28;20098;-78
2022/06/21 04:53:16;;;;;;;10.32;5.20;;;;;;;;;;5051289;28;20075;-78
2022/06/21 04:55:54;;;;;;;10.25;5.28;;;;;;;;;;5046139;28;20037;-80
2022/06/21 04:58:20;;;;;;;11.55;5.50;;;;;;;;;;5047736;28;20159;-78
2022/06/21 05:00:47;;;;;;;12.63;5.50;;;;;;;;;;5005427;28;20041;-78
2022/06/21 05:03:26;;;;;;;13.45;6.68;;;;;;;;;;4998640;28;20472;-79
2022/06/21 05:05:52;;;;;;;11.02;5.47;;;;;;;;;;5037974;28;20124;-78
2022/06/21 05:08:21;;;;;;;12.90;5.60;;;;;;;;;;5044376;28;20032;-79
2022/06/21 05:10:49;;;;;;;12.13;5.68;;;;;;;;;;5047092;28;20486;-79
2022/06/21 05:13:21;;;;;;;15.30;5.20;;;;;;;;;;5024759;28;20041;-78
2022/06/21 05:15:47;;;;;;;8.68;5.95;;;;;;;;;;5036751;28;20101;-79
2022/06/21 05:18:16;;;;;;;8.82;5.03;;;;;;;;;;5046247;28;20033;-80
2022/06/21 05:20:46;;;;;;;11.82;5.32;;;;;;;;;;5045530;28;20442;-79
2022/06/21 05:23:13;;;;;;;11.80;4.95;;;;;;;;;;5049053;28;20041;-79
2022/06/21 05:25:41;;;;;;;9.65;4.35;;;;;;;;;;5028498;28;20051;-78
2022/06/21 05:28:14;;;;;;;8.65;3.75;;;;;;;;;;5049645;28;20048;-78
2022/06/21 05:30:40;;;;;;;9.50;4.27;;;;;;;;;;5035169;28;20480;-79
2022/06/21 05:33:11;;;;;;;41.35;6.57;;;;;;;;;;5065911;28;20275;-79
2022/06/21 05:35:38;;;;;;;10.98;4.45;;;;;;;;;;5044333;28;20132;-78
2022/06/21 05:38:11;;;;;;;9.75;3.85;;;;;;;;;;5041824;28;20518;-79
2022/06/21 05:40:42;;;;;;;10.57;3.70;;;;;;;;;;5065467;28;20498;-78
2022/06/21 05:43:19;;;;;;;7.60;3.05;;;;;;;;;;5046930;28;20124;-79
2022/06/21 05:45:50;;;;;;;9.93;3.15;;;;;;;;;;5031817;28;20081;-79
2022/06/21 05:48:24;;;;;;;8.80;3.55;;;;;;;;;;5048751;28;20045;-78
2022/06/21 05:50:51;;;;;;;9.98;3.22;;;;;;;;;;5065691;28;20064;-79
2022/06/21 05:53:30;;;;;;;10.93;4.28;;;;;;;;;;5049907;28;20127;-78
2022/06/21 05:55:57;;;;;;;8.38;3.83;;;;;;;;;;5065601;28;20136;-78
2022/06/21 05:58:32;;;;;;;9.63;3.90;;;;;;;;;;5065867;28;20059;-77
2022/06/21 06:01:10;;;;;;;10.23;3.15;;;;;;;;;;5046380;28;20033;-78
2022/06/21 06:03:39;;;;;;;9.00;3.08;;;;;;;;;;5067120;28;20043;-78
2022/06/21 06:06:05;;;;;;;6.47;2.22;;;;;;;;;;5067504;28;20481;-79
2022/06/21 06:08:34;;;;;;;8.60;2.55;;;;;;;;;;5041323;28;20119;-79
2022/06/21 06:11:01;;;;;;;8.05;2.83;;;;;;;;;;5066396;28;20073;-79
2022/06/21 06:13:29;;;;;;;6.78;2.58;;;;;;;;;;5046616;28;20048;-79
2022/06/21 06:15:58;;;;;;;9.07;3.20;;;;;;;;;;5066189;28;20044;-79
2022/06/21 06:18:40;;;;;;;8.02;3.33;;;;;;;;;;5050737;28;20122;-79
2022/06/21 06:21:06;;;;;;;5.72;2.58;;;;;;;;;;5047345;28;20610;-78
2022/06/21 06:23:35;;;;;;;6.15;2.58;;;;;;;;;;5048154;28;20055;-80
2022/06/21 06:26:01;;;;;;;13.23;2.70;;;;;;;;;;5044847;28;20044;-80
2022/06/21 06:28:46;;;;;;;7.07;2.58;;;;;;;;;;5062485;28;20051;-79
2022/06/21 06:31:45;;;;;;;8.43;3.15;;;;;;;;;;5046361;28;20140;-78
2022/06/21 06:34:20;;;;;;;7.63;2.35;;;;;;;;;;5018628;28;20049;-77
2022/06/21 06:37:25;;;;;;;6.90;2.78;;;;;;;;;;5048077;28;20053;-79
2022/06/21 06:39:52;;;;;;;8.52;2.20;;;;;;;;;;5005476;28;20226;-79
2022/06/21 06:42:21;;;;;;;9.15;2.97;;;;;;;;;;5029364;28;20049;-79
2022/06/21 06:44:50;;;;;;;12.35;3.03;;;15.40;99.90;;;;;;5037988;28;20053;-80
2022/06/21 06:47:29;;;;;;;8.90;2.60;;;;;;;;;;5050886;28;20054;-78
2022/06/21 06:49:56;;;;;;;13.77;4.35;;;;;;;;;;5055570;28;20043;-79
2022/06/21 06:52:27;;;;;;;5.22;2.63;;;;;;;;;;5042452;28;20076;-78
2022/06/21 06:55:03;;;;;;;6.63;2.38;;;;;;;;;;5069384;28;20067;-79
2022/06/21 06:57:29;;;;;;;7.70;2.60;;;;;;;;;;5053566;28;20055;-79
2022/06/21 06:59:56;;;;;;;7.65;2.22;;;;;;;;;;5050424;28;20414;-80
2022/06/21 07:02:26;;;;;;;5.63;2.10;;;;;;;;;;5052650;28;20127;-78
2022/06/21 07:05:02;;;;;;;7.13;2.90;;;;;;;;;;5069880;28;20044;-78
2022/06/21 07:07:36;;;;;;;10.00;2.60;;;;;;;;;;5035700;28;20446;-79
2022/06/21 07:10:05;;;;;;;9.68;2.42;;;;;;;;;;5067574;28;20491;-78
2022/06/21 07:12:31;;;;;;;12.35;2.72;;;;;;;;;;5069411;28;20385;-77
2022/06/21 07:14:58;;;;;;;6.25;2.00;;;;;;;;;;5077204;28;20037;-79
2022/06/21 07:17:39;;;;;;;8.35;2.38;;;;;;;;;;5067488;28;20165;-78
2022/06/21 07:20:26;;;;;;;5.50;2.40;;;;;;;;;;5069194;28;20518;-78
2022/06/21 07:22:55;;;;;;;10.80;2.92;;;;;;;;;;5049109;28;20082;-78
2022/06/21 07:25:21;;;;;;;6.55;2.17;;;;;;;;;;5051676;28;20043;-77
2022/06/21 07:27:56;;;;;;;7.75;2.60;;;;;;;;;;5067364;28;20032;-79
2022/06/21 07:30:26;;;;;;;9.35;2.72;;;;;;;;;;5049887;28;20396;-78
2022/06/21 07:32:55;;;;;;;6.75;2.03;;;;;;;;;;5051630;28;20052;-80
2022/06/21 07:35:27;;;;;;;11.40;2.83;;;;;;;;;;5067578;28;20091;-79
2022/06/21 07:37:56;;;;;;;7.05;2.67;;;;;;;;;;5074223;28;20559;-78
2022/06/21 07:40:26;;;;;;;6.03;2.30;;;;;;;;;;5070955;28;20532;-78
2022/06/21 07:43:01;;;;;;;5.57;2.28;;;;;;;;;;5050972;28;20056;-78
2022/06/21 07:45:33;;;;;;;7.18;2.33;;;;;;;;;;5054315;28;20063;-78
2022/06/21 07:48:04;;;;;;;8.32;2.35;;;;;;;;;;5040476;28;20445;-78
2022/06/21 07:50:46;;;;;;;7.60;2.72;;;;;;;;;;5049886;28;20045;-79
2022/06/21 07:53:25;;;;;;;6.70;2.33;;;;;;;;;;5049269;28;20083;-79
2022/06/21 07:55:57;;;;;;;10.20;2.05;;;;;;;;;;5067931;28;20465;-79
2022/06/21 07:58:29;;;;;;;4.85;2.50;;;;;;;;;;5049116;28;20507;-78
2022/06/21 08:06:41;;;;;;;7.93;2.35;;;;;;;;;;5048864;28;20169;-77
2022/06/21 08:09:13;;;;;;;6.20;1.83;;;;;;;;;;5050187;28;20062;-77
2022/06/21 08:11:43;;;;;;;6.15;2.20;;;;;;;;;;5050366;28;20059;-79
2022/06/21 08:14:10;;;;;;;5.38;2.35;;;;;;;;;;5074100;28;20079;-79
2022/06/21 08:16:57;;;;;;;6.57;2.35;;;;;;;;;;5066802;28;20056;-80
2022/06/21 08:19:41;;;;;;;6.05;2.65;;;;;;;;;;5032054;28;20457;-81
2022/06/21 08:22:07;;;;;;;;;;;;;;;;;;5040221;28;20052;-79
2022/06/21 08:24:43;;;;;;;7.72;2.40;;;;;;;;;;5058588;28;20025;-80
2022/06/21 08:27:14;;;;;;;7.40;2.72;;;;;;;;;;5040036;28;20044;-80
2022/06/21 08:29:48;;;;;;;12.23;2.92;;;;;;;;;;5052711;28;20405;-80
2022/06/21 08:32:20;;;;;;;5.30;2.38;;;;;;;;;;5051366;28;20083;-80
2022/06/21 08:34:54;;;;;;;9.40;3.15;;;;;;;;;;5067470;28;20146;-80
2022/06/21 08:37:20;;;;;;;12.02;3.42;;;;;;;;;;5059092;28;20071;-80
2022/06/21 08:39:50;;;;;;;6.18;2.50;;;;;;;;;;5063969;28;20549;-80
2022/06/21 08:42:19;;;;;;;9.27;2.47;;;;;;;;;;5062244;28;20048;-79
2022/06/21 08:47:59;;;;;;;11.63;3.50;;;;;;;;;;5024214;28;20409;-80
2022/06/21 08:50:25;;;;;;;;;;;;;;;;;;5047771;28;20496;-80
2022/06/21 08:52:54;;;;;;;6.10;2.85;;;;;;;;;;5066238;28;20395;-80
2022/06/21 08:55:39;;;;;;;7.72;3.03;;;;;;;;;;5066042;28;20397;-80
2022/06/21 08:58:31;;;;;;;5.63;2.95;;;;;;;;;;5047863;28;20059;-80
2022/06/21 09:01:20;;;;;;;5.68;2.85;;;;;;;;;;5064949;28;20079;-80
2022/06/21 09:04:04;;;;;;;6.45;3.05;;;;;;;;;;5056926;28;20048;-81
2022/06/21 09:06:46;;;;;;;9.40;3.33;;;;;;;;;;5061477;28;20143;-80
2022/06/21 09:09:31;;;;;;;8.88;3.25;;;;;;;;;;5066814;28;20094;-80
2022/06/21 09:12:16;;;;;;;10.68;2.72;;;;;;;;;;5046022;28;20384;-80
2022/06/21 09:14:45;;;;;;;10.70;2.95;;;;;;;;;;5061988;28;20052;-81
2022/06/21 09:17:37;;;;;;;8.38;3.03;;;;;;;;;;5071844;28;20052;-80
2022/06/21 09:20:10;;;;;;;10.88;2.95;;;;;;;;;;5056921;28;20053;-80
2022/06/21 09:22:42;;;;;;;5.70;2.13;;;;;;;;;;5041961;28;20045;-80
2022/06/21 09:25:29;;;;;;;8.77;2.90;;;;;;;;;;5059780;28;20043;-80
2022/06/21 09:28:15;;;;;;;9.43;2.72;;;;;;;;;;5048123;28;20640;-80
2022/06/21 09:30:47;;;;;;;7.47;3.10;;;;;;;;;;5042261;28;20512;-80
2022/06/21 09:33:19;;;;;;;6.65;3.03;;;;;;;;;;5054677;28;20032;-80
2022/06/21 09:35:50;;;;;;;8.90;3.03;;;;;;;;;;5052539;28;20041;-81
2022/06/21 09:38:26;;;;;;;8.68;2.78;;;;;;;;;;5064212;28;20053;-81
2022/06/21 09:41:11;;;;;;;6.88;2.67;;;;;;;;;;5066139;28;20410;-80
2022/06/21 09:43:56;;;;;;;6.53;2.97;;;;;;;;;;5065017;28;20469;-80
2022/06/21 09:46:28;;;;;;;7.70;2.78;;;;;;;;;;5064186;28;20039;-80
2022/06/21 09:48:57;;;;;;;8.95;2.83;;;;;;;;;;5067586;28;20033;-81
2022/06/21 09:51:41;;;;;;;9.40;2.42;;;;;;;;;;5063601;28;20044;-80
2022/06/21 09:54:27;;;;;;;5.80;2.75;;;;;;;;;;5066706;28;20070;-80
2022/06/21 09:56:58;;;;;;;7.22;3.25;;;;;;;;;;5039637;28;20519;-81
2022/06/21 09:59:29;;;;;;;6.22;2.42;;;;;;;;;;5037341;28;20041;-80
2022/06/21 10:02:10;;;;;;;8.15;2.83;;;;;;;;;;5065354;28;20037;-80
2022/06/21 10:04:41;;;;;;;5.10;2.35;;;;;;;;;;5068460;28;20439;-81
2022/06/21 10:07:13;;;;;;;8.13;2.92;;;;;;;;;;5048952;28;20045;-80
2022/06/21 10:09:48;;;;;;;7.82;2.15;;;;;;;;;;5063553;28;20113;-80
2022/06/21 10:12:18;;;;;;;4.53;2.25;;;;;;;;;;5062971;28;20042;-81
2022/06/21 10:14:46;;;;;;;9.80;2.40;;;;;;;;;;5066874;28;20051;-80
2022/06/21 10:17:37;;;;;;;5.95;2.28;;;;;;;;;;5071719;28;20049;-80
2022/06/21 10:20:28;;;;;;;6.93;2.30;;;;;;;;;;5068663;28;20518;-80
2022/06/21 10:23:03;;;;;;;6.45;2.15;;;;;;;;;;5069568;28;20099;-80
2022/06/21 10:25:32;;;;;;;5.95;1.90;;;;;;;;;;5069095;28;20186;-80
2022/06/21 10:28:10;;;;;;;4.78;2.10;;;;;;;;;;5076722;28;20040;-81
2022/06/21 10:30:53;;;;;;;5.53;2.25;;;;;;;;;;5068206;28;20052;-81
2022/06/21 10:33:29;;;;;;;6.30;2.10;;;;;;;;;;5058988;28;20048;-81
2022/06/21 10:36:10;;;;;;;6.78;2.35;;;;;;;;;;5067919;28;20048;-80
2022/06/21 10:38:44;;;;;;;5.82;1.83;;;;;;;;;;5067948;28;20563;-79
2022/06/21 10:41:17;;;;;;;3.35;1.92;;;;;;;;;;5067523;28;20147;-80
2022/06/21 10:44:02;;;;;;;5.22;2.15;;;;;;;;;;5067697;28;20507;-79
2022/06/21 10:46:29;;;;;;;8.00;2.83;;;;;;;;;;5061116;28;20136;-82
2022/06/21 10:48:59;;;;;;;5.40;2.35;;;;;;;;;;5068487;28;20039;-81
2022/06/21 10:51:33;;;;;;;6.63;2.75;;;;;;;;;;5066679;28;20032;-80
2022/06/21 10:54:25;;;;;;;8.88;2.75;;;;;;;;;;5069577;28;20032;-81
2022/06/21 10:57:09;;;;;;;8.13;2.67;;;;;;;;;;5037572;28;20087;-81
2022/06/21 11:01:17;;;;;;;;;;;;;;;;;;5050869;28;20106;-80
2022/06/21 11:02:40;;;;;;;8.73;2.72;;;;;;;;;;5041230;28;20429;-81
2022/06/21 11:05:17;;;;;;;9.85;3.50;;;;;;;;;;5068151;28;20052;-82
2022/06/21 11:08:02;;;;;;;7.15;2.53;;;;;;;;;;5071101;28;20048;-81
2022/06/21 11:10:41;;;;;;;4.85;2.60;;;;;;;;;;5069930;28;20060;-81
2022/06/21 11:13:14;;;;;;;8.70;2.60;;;;;;;;;;5073434;28;20041;-81
2022/06/21 11:15:58;;;;;;;10.85;2.50;;;;;;;;;;5059105;28;20049;-80
2022/06/21 11:18:28;;;;;;;5.45;1.90;;;;;;;;;;5056902;28;20150;-80
2022/06/21 11:21:08;;;;;;;5.97;2.03;;;;;;;;;;5070740;28;20072;-81
2022/06/21 11:23:43;;;;;;;8.23;2.30;;;;;;;;;;5039258;28;20357;-81
2022/06/21 11:26:12;;;;;;;4.60;2.35;;;;;;;;;;5067465;28;20032;-80
2022/06/21 11:28:57;;;;;;;8.57;2.10;;;;;;;;;;5068951;28;20071;-81
2022/06/21 11:31:32;;;;;;;5.38;1.98;;;;;;;;;;5064734;28;20075;-80
2022/06/21 11:34:01;;;;;;;7.05;2.47;;;;;;;;;;5068712;28;20411;-81
2022/06/21 11:36:33;;;;;;;7.82;2.40;;;;;;;;;;5060740;28;20048;-82
2022/06/21 11:39:02;;;;;;;5.00;1.92;;;;;;;;;;5068272;28;20071;-81
2022/06/21 11:42:05;;;;;;;4.55;1.77;;;;;;;;;;5039419;28;20416;-81
2022/06/21 11:44:40;;;;;;;7.80;2.17;;;;;;;;;;5067642;28;20044;-80
2022/06/21 11:47:07;;;;;;;6.55;2.00;;;;;;;;;;5067716;28;20080;-81
2022/06/21 11:49:47;;;;;;;8.07;2.63;;;;;;;;;;5066986;28;20060;-80
2022/06/21 11:52:20;;;;;;;5.65;2.08;;;;;;;;;;5062788;28;20049;-80
2022/06/21 11:54:49;;;;;;;6.80;2.25;;;;;;;;;;5068347;28;20047;-81
2022/06/21 11:57:28;;;;;;;4.75;2.17;;;;;;;;;;5046577;28;20257;-80
2022/06/21 12:00:13;;;;;;;7.65;2.40;;;;;;;;;;5051464;28;20572;-80
2022/06/21 12:02:43;;;;;;;7.43;3.50;;;;;;;;;;5066711;28;20076;-80
2022/06/21 12:05:28;;;;;;;8.82;3.10;;;;;;;;;;5067168;28;20110;-81
2022/06/21 12:08:02;;;;;;;3.90;2.20;;;;;;;;;;5068215;28;20048;-80
2022/06/21 12:10:38;;;;;;;8.93;2.70;;;;;;;;;;5066336;28;20518;-81
2022/06/21 12:13:07;;;;;;;6.55;2.92;;;;;;;;;;5066978;28;20442;-81
2022/06/21 12:15:36;;;;;;;6.70;2.50;;;;;;;;;;5054288;28;20496;-80
2022/06/21 12:18:07;;;;;;;7.35;2.30;;;;;;;;;;5048918;28;20090;-81
2022/06/21 12:20:37;;;;;;;6.45;2.60;;;;;;;;;;5067466;28;20058;-81
2022/06/21 12:23:15;;;;;;;6.63;2.38;;;;;;;;;;5063440;28;20067;-81
2022/06/21 12:25:41;;;;;;;7.00;2.55;;;;;;;;;;5049130;28;20580;-81
2022/06/21 12:28:15;;;;;;;5.20;2.22;;;;;;;;;;5065641;28;20900;-80
2022/06/21 12:30:41;;;;;;;4.78;1.95;;;;;;;;;;5074777;28;20059;-81
2022/06/21 12:33:09;;;;;;;5.10;2.00;;;;;;;;;;5063359;28;20388;-81
2022/06/21 12:35:51;;;;;;;7.53;2.70;;;;;;;;;;5065767;28;20048;-80
2022/06/21 12:38:21;;;;;;;8.63;2.40;;;;;;;;;;5062507;28;20117;-82
2022/06/21 12:41:06;;;;;;;6.65;2.30;;;;;;;;;;5050613;28;20048;-81
2022/06/21 12:43:44;;;;;;;7.20;2.30;;;;;;;;;;5066655;28;20594;-81
2022/06/21 12:46:13;;;;;;;4.90;1.98;;;;;;;;;;5046033;28;20080;-81
2022/06/21 12:48:48;;;;;;;7.03;2.45;;;;;;;;;;5066806;28;20159;-81
2022/06/21 12:51:27;;;;;;;6.65;2.70;;;;;;;;;;5046270;28;21446;-80
2022/06/21 12:54:00;;;;;;;5.22;2.05;;;;;;;;;;5048990;28;20104;-81
2022/06/21 12:56:31;;;;;;;6.93;2.30;;;;;;;;;;5065803;28;20404;-80
2022/06/21 12:59:03;;;;;;;7.93;2.22;;;;;;;;;;5060390;28;20294;-80
2022/06/21 13:01:42;;;;;;;9.88;2.72;;;;;;;;;;5064911;28;20048;-82
2022/06/21 13:04:11;;;;;;;7.55;2.20;;;;;;;;;;5063921;28;20094;-80
2022/06/21 13:06:41;;;;;;;4.50;2.03;;;;;;;;;;5064792;28;20036;-80
2022/06/21 13:09:27;;;;;;;6.63;2.45;;;;;;;;;;5064219;28;20045;-80
2022/06/21 13:12:05;;;;;;;10.85;2.40;;;;;;;;;;5061628;28;20044;-79
2022/06/21 13:14:40;;;;;;;5.70;2.42;;;;;;;;;;5081403;28;20046;-81
2022/06/21 13:17:09;;;;;;;3.85;1.83;;;;;;;;;;5065419;28;20067;-81
2022/06/21 13:19:35;;;;;;;5.60;2.28;;;;;;;;;;5063788;28;20059;-80
2022/06/21 13:22:22;;;;;;;5.13;2.45;;;;;;;;;;5079008;28;20037;-80
2022/06/21 13:25:17;;;;;;;5.35;2.30;;;;;;;;;;5051268;28;20084;-80
2022/06/21 13:28:07;;;;;;;7.45;2.35;;;;;;;;;;5076430;28;20047;-80
2022/06/21 13:30:36;;;;;;;4.95;2.45;;;;;;;;;;5069671;28;20044;-80
2022/06/21 13:33:24;;;;;;;10.95;2.83;;;;;;;;;;5050814;28;20083;-80
2022/06/21 13:35:57;;;;;;;5.03;2.25;;;;;;;;;;5044476;28;20044;-80
2022/06/21 13:38:32;;;;;;;4.88;2.30;;;;;;;;;;5043602;28;20094;-80
2022/06/21 13:44:07;;;;;;;8.68;2.10;;;;;;;;;;5041862;28;20520;-81
2022/06/21 13:46:38;;;;;;;3.83;1.92;;;;;;;;;;5040045;28;20056;-80
2022/06/21 13:49:13;;;;;;;4.20;1.90;;;;;;;;;;5038705;28;20076;-81
2022/06/21 13:51:59;;;;;;;7.53;2.00;;;;;;;;;;5056201;28;20052;-80
2022/06/21 13:54:45;;;;;;;6.65;2.42;;;;;;;;;;5044155;28;20239;-80
2022/06/21 13:57:33;;;;;;;4.90;2.20;;;;;;;;;;5048001;28;20051;-79
2022/06/21 13:59:59;;;;;;;5.32;2.10;;;;;;;;;;5033059;28;20507;-78
2022/06/21 14:02:32;;;;;;;6.72;2.20;;;;;;;;;;5037468;28;20429;-80
2022/06/21 14:04:58;;;;;;;3.53;1.90;;;;;;;;;;5050708;28;20090;-79
2022/06/21 14:07:42;;;;;;;5.15;2.08;;;;;;;;;;5045667;28;20097;-80
2022/06/21 14:10:23;;;;;;;5.97;2.15;;;;;;;;;;5029213;28;20684;-80
2022/06/21 14:13:00;;;;;;;5.70;2.13;;;;;;;;;;5064075;28;20052;-80
2022/06/21 14:15:32;;;;;;;8.13;2.72;;;;;;;;;;5055280;28;20037;-78
2022/06/21 14:17:58;;;;;;;5.80;2.25;;;;;;;;;;5070380;28;20058;-81
2022/06/21 14:20:47;;;;;;;7.60;2.58;;;;;;;;;;5057508;28;20054;-80
2022/06/21 14:23:32;;;;;;;8.77;2.05;;;;;;;;;;5066131;28;21241;-81
2022/06/21 14:26:04;;;;;;;6.68;2.10;;;;;;;;;;5064733;28;20040;-81
2022/06/21 14:28:38;;;;;;;7.82;2.50;;;;;;;;;;5067480;28;20246;-81
2022/06/21 14:31:18;;;;;;;6.72;2.80;;;;;;;;;;5067034;28;20364;-81
2022/06/21 14:33:49;;;;;;;4.95;2.38;;;;;;;;;;5075329;28;20487;-80
2022/06/21 14:36:18;;;;;;;7.82;2.90;;;;;;;;;;5072216;28;20048;-81
2022/06/21 14:39:02;;;;;;;6.38;2.90;;;;;;;;;;5071457;28;20484;-80
2022/06/21 14:41:28;;;;;;;8.43;2.80;;;;;;;;;;5074856;28;20511;-80
2022/06/21 14:44:13;;;;;;;4.05;1.83;;;;;;;;;;5075404;28;20044;-80
2022/06/21 14:47:02;;;;;;;7.47;2.42;;;;;;;;;;5042543;28;20840;-80
2022/06/21 14:49:50;;;;;;;5.65;2.20;;;;;;;;;;5044574;28;20044;-80
2022/06/21 14:52:29;;;;;;;5.43;2.33;;;;;;;;;;5058839;28;20561;-80
2022/06/21 14:55:15;;;;;;;6.30;2.70;;;;;;;;;;5069642;28;20117;-79
2022/06/21 14:58:00;;;;;;;6.65;2.58;;;;;;;;;;5068303;28;21275;-80
2022/06/21 15:00:35;;;;;;;7.97;2.42;;;;;;;;;;5073196;28;20039;-80
2022/06/21 15:03:14;;;;;;;7.00;2.55;;;;;;;;;;5066385;28;20059;-80
2022/06/21 15:05:40;;;;;;;6.72;3.15;;;;;;;;;;5071854;28;20043;-81
2022/06/21 15:08:25;;;;;;;5.30;2.17;;;;;;;;;;5067709;28;20044;-82
2022/06/21 15:10:59;;;;;;;6.95;2.30;;;;;;;;;;5067674;28;20063;-80
2022/06/21 15:13:28;;;;;;;7.85;2.17;;;;;;;;;;5049020;28;20050;-81
2022/06/21 15:15:55;;;;;;;3.75;2.30;;;;;;;;;;5076830;28;20040;-81
2022/06/21 15:18:26;;;;;;;4.85;2.20;;;;;;;;;;5062521;28;20090;-81
2022/06/21 15:21:15;;;;;;;5.43;2.20;;;;;;;;;;5057758;28;20120;-80
2022/06/21 15:24:03;;;;;;;9.57;2.83;;;;;;;;;;5047171;28;20080;-81
2022/06/21 15:26:48;;;;;;;8.02;2.28;;;;;;;;;;5035363;28;20502;-80
2022/06/21 15:29:18;;;;;;;8.90;2.38;;;;;;;;;;5031206;28;20438;-81
2022/06/21 15:32:05;;;;;;;15.13;2.83;;;;;;;;;;5061172;28;20403;-80
2022/06/21 15:34:33;;;;;;;6.60;2.30;;;;;;;;;;5049053;28;20041;-82